X  Sluiten METAR luchtvaart weer gegevens         EBOS Ostend-Bruges International Airport
Temperatuur
11°C Temperatuur
7°C Dauwpunt
77% Vochtigheid



Wind
52 KM/U
32 MPH
14 M/S
28 KTS



320°
NW
Huidig weer

Mostly Cloudy Grotendeels bewolkt
Luchtdruk 993 (hPa) - 29.32 (inHg)
Zicht 30 (mijl) - 48 (km)
Vliegveld
Vliegveld code EBOS

Locatie : Ostend-Bruges International Airport
Afstand: 60 (km)

Metar:
METAR EBOS 210350Z 32028G38KT 9999 FEW012 SCT022 BKN040 11/07 Q0993 TEMPO 3000 SHRA

Tijd: 21-10-2021 05:50 CEST